Airfield :
LOGIN :

Register | Disclaimer

   EN    FR    IT 

 










Legend :    VFR   Marginal VFR   IFR   Intensive IFR   Very Intensive IFR
Visi :
Ceiling :
>= 8 km
>= 3000ft
5 to 8 km
1000 to 3000 ft
1500m to 5 km
500 to 1000 ft
800 to 1500m
200 to 500 ft
< 800m
< 200 ft
Symbols :   Thunderstorms  Fog  Heavy snow  Heavy precipitations  Wind > 20 kt
SIGMETs :     Misc.  Thunderstorms  Icing  Turbulence  Mountain Waves  Volcanic Ashes






- Airport Elevation : 640 ft
- IATA code : AOC


EDAC - Altenburg-Nobitz

CURRENT METAR :
  • 281150Z 20014KT 9999 -RA FEW024 07/// Q0992

EXPIRED METARs :
  • 281120Z 20016KT 9999 SCT026 07/// Q0992
  • 281050Z 20018G29KT 9999 BKN028 08/// Q0993
  • 281020Z 19012KT 9999 SCT032 08/// Q0993
  • 280950Z 20011KT 9999 BKN036 07/// Q0994
  • 280920Z 19009KT 9999 BKN030 07/// Q0994

TAF TAF EDAC
Valid from the 28 at 12:00 until the 28 at 21:00 UTC


281100Z 2812/2821 21015G25KT 9999 BKN025
TEMPO 2812/2817 24020G40KT 4000 SHRAGS BKN014CB
TEMPO 2817/2821 24020G35KT



MET'MAP, your aeronautical weather chart ! - Copyright ORBIFLY December 2007 - Disclaimer

ORBIFLY MET'MAP TEAM :

Programming & Development : Alexandra Zaïnal
Concept & original design : Baudouin d'Aumeries
Assistance for programming : Marc-Olivier Méhu
Technical & hardware support : Manuel Goepfert

Contact : metmap@orbifly.com




SOURCES & CREDITS :

   NOAA